createdAt,value
2023-02-06T00:01:50.878Z,51.31
2023-02-06T00:04:18.754Z,51.14
2023-02-06T00:06:46.677Z,51.11
2023-02-06T00:09:15.723Z,51.21
2023-02-06T00:11:43.838Z,51.28
2023-02-06T00:14:11.549Z,51.09
2023-02-06T00:16:39.390Z,51.19
2023-02-06T00:19:07.308Z,51.18
2023-02-06T00:21:37.593Z,51.10
2023-02-06T00:24:05.746Z,51.19
2023-02-06T00:26:33.642Z,51.12
2023-02-06T00:29:01.424Z,51.10
2023-02-06T00:31:29.506Z,51.17
2023-02-06T00:33:57.238Z,51.00
2023-02-06T00:36:26.682Z,51.06
2023-02-06T00:38:54.599Z,50.83
2023-02-06T00:41:22.412Z,50.95
2023-02-06T00:43:52.064Z,50.84
2023-02-06T00:46:20.261Z,50.61
2023-02-06T00:48:48.105Z,50.63
2023-02-06T00:51:16.167Z,50.91
2023-02-06T00:53:43.902Z,50.98
2023-02-06T00:56:11.734Z,50.93
2023-02-06T00:58:39.434Z,50.68
2023-02-06T01:01:07.473Z,50.80
2023-02-06T01:03:35.387Z,50.62
2023-02-06T01:06:03.206Z,50.59
2023-02-06T01:08:30.857Z,50.55
2023-02-06T01:11:00.414Z,50.55
2023-02-06T01:13:28.305Z,50.49
2023-02-06T01:15:56.122Z,50.37
2023-02-06T01:18:24.135Z,50.47
2023-02-06T01:20:51.787Z,50.64
2023-02-06T01:23:19.408Z,50.58
2023-02-06T01:25:47.121Z,50.78
2023-02-06T01:28:16.791Z,50.64
2023-02-06T01:30:44.628Z,50.87
2023-02-06T01:33:12.397Z,50.85
2023-02-06T01:35:40.104Z,50.94
2023-02-06T01:38:08.915Z,50.71
2023-02-06T01:40:36.652Z,50.69
2023-02-06T01:43:10.993Z,50.59
2023-02-06T01:45:42.911Z,50.56
2023-02-06T01:48:17.074Z,50.60
2023-02-06T01:50:51.121Z,50.76
2023-02-06T01:53:22.341Z,50.37
2023-02-06T01:55:53.369Z,50.42
2023-02-06T01:58:38.623Z,50.54
2023-02-06T02:01:07.537Z,50.75
2023-02-06T02:03:39.448Z,50.44
2023-02-06T02:06:13.359Z,50.60
2023-02-06T02:08:48.052Z,50.60
2023-02-06T02:11:23.808Z,50.71
2023-02-06T02:13:52.607Z,50.63
2023-02-06T02:16:35.908Z,50.60
2023-02-06T02:19:50.167Z,50.62
2023-02-06T02:22:47.961Z,50.53
2023-02-06T02:25:37.622Z,50.59
2023-02-06T02:28:52.781Z,50.51
2023-02-06T02:31:49.922Z,50.62
2023-02-06T02:34:40.083Z,50.50
2023-02-06T02:37:33.953Z,50.51
2023-02-06T02:40:18.859Z,50.63
2023-02-06T02:43:23.254Z,50.54
2023-02-06T02:46:27.749Z,50.66
2023-02-06T02:49:19.631Z,50.71
2023-02-06T02:52:09.801Z,50.61
2023-02-06T02:54:37.995Z,50.69
2023-02-06T02:57:32.074Z,50.40
2023-02-06T03:00:01.772Z,50.55
2023-02-06T03:02:38.072Z,50.68
2023-02-06T03:05:10.604Z,50.75
2023-02-06T03:08:06.479Z,50.57
2023-02-06T03:11:02.993Z,50.60
2023-02-06T03:13:45.632Z,50.71
2023-02-06T03:16:36.858Z,50.64
2023-02-06T03:19:15.195Z,50.62
2023-02-06T03:21:45.800Z,50.66
2023-02-06T03:24:19.850Z,50.80
2023-02-06T03:26:52.509Z,50.44
2023-02-06T03:29:21.247Z,50.35
2023-02-06T03:32:05.432Z,50.61
2023-02-06T03:34:45.297Z,50.56
2023-02-06T03:37:14.871Z,50.98
2023-02-06T03:39:43.343Z,50.84
2023-02-06T03:42:13.700Z,50.83
2023-02-06T03:44:48.876Z,50.71
2023-02-06T03:47:20.994Z,50.77
2023-02-06T03:49:50.825Z,50.81
2023-02-06T03:52:25.597Z,50.70
2023-02-06T03:55:00.278Z,50.49
2023-02-06T03:57:31.425Z,50.60
2023-02-06T03:59:59.517Z,50.55
2023-02-06T04:02:28.808Z,50.44
2023-02-06T04:04:56.977Z,50.38
2023-02-06T04:07:28.628Z,50.37
2023-02-06T04:09:56.633Z,50.41
2023-02-06T04:12:24.886Z,50.40
2023-02-06T04:14:53.280Z,50.44
2023-02-06T04:17:40.707Z,50.50
2023-02-06T04:20:10.039Z,50.44
2023-02-06T04:22:39.236Z,50.42
2023-02-06T04:25:07.373Z,50.58
2023-02-06T04:27:37.144Z,50.58
2023-02-06T04:30:06.275Z,50.23
2023-02-06T04:32:34.244Z,50.71
2023-02-06T04:35:02.072Z,50.29
2023-02-06T04:37:29.963Z,50.49
2023-02-06T04:39:57.681Z,50.67
2023-02-06T04:42:25.677Z,50.47
2023-02-06T04:44:53.363Z,50.62
2023-02-06T04:47:21.095Z,50.60
2023-02-06T04:49:48.832Z,50.65
2023-02-06T04:52:16.682Z,50.70
2023-02-06T04:54:44.492Z,50.43
2023-02-06T04:57:12.293Z,50.70
2023-02-06T04:59:39.943Z,50.63
2023-02-06T05:02:07.747Z,50.78
2023-02-06T05:04:35.761Z,50.68
2023-02-06T05:07:05.428Z,50.76
2023-02-06T05:09:33.370Z,50.90
2023-02-06T05:12:01.170Z,50.90
2023-02-06T05:14:29.017Z,50.77
2023-02-06T05:16:56.725Z,50.98
2023-02-06T05:19:24.470Z,51.14
2023-02-06T05:21:52.196Z,50.93
2023-02-06T05:24:20.093Z,50.88
2023-02-06T05:26:48.191Z,50.94
2023-02-06T05:29:15.863Z,51.38
2023-02-06T05:31:43.657Z,51.24
2023-02-06T05:34:11.623Z,51.21
2023-02-06T05:36:39.474Z,50.94
2023-02-06T05:39:07.541Z,51.12
2023-02-06T05:41:35.748Z,51.02
2023-02-06T05:44:03.557Z,51.20
2023-02-06T05:46:31.441Z,51.28
2023-02-06T05:48:59.413Z,51.29
2023-02-06T05:51:27.218Z,50.89
2023-02-06T05:53:55.125Z,51.00
2023-02-06T05:56:23.023Z,51.06
2023-02-06T05:58:50.790Z,51.02
2023-02-06T06:01:18.612Z,51.19
2023-02-06T06:03:46.473Z,51.01
2023-02-06T06:06:14.222Z,51.20
2023-02-06T06:08:41.882Z,51.20
2023-02-06T06:11:09.591Z,51.11
2023-02-06T06:13:37.362Z,51.31
2023-02-06T06:16:05.643Z,51.80
2023-02-06T06:18:33.424Z,51.52
2023-02-06T06:21:01.332Z,51.79
2023-02-06T06:23:28.993Z,51.92
2023-02-06T06:25:56.781Z,51.95
2023-02-06T06:28:24.529Z,51.64
2023-02-06T06:30:59.649Z,51.76
2023-02-06T06:33:27.742Z,51.81
2023-02-06T06:35:55.715Z,51.84
2023-02-06T06:38:24.077Z,52.02
2023-02-06T06:40:52.877Z,51.97
2023-02-06T06:43:20.803Z,51.59
2023-02-06T06:45:48.731Z,51.77
2023-02-06T06:48:16.858Z,51.82
2023-02-06T06:50:44.839Z,51.96
2023-02-06T06:53:12.581Z,52.02
2023-02-06T06:55:40.594Z,51.92
2023-02-06T06:58:08.331Z,52.15
2023-02-06T07:00:38.176Z,52.06
2023-02-06T07:03:07.814Z,51.73
2023-02-06T07:05:36.007Z,52.03
2023-02-06T07:08:04.520Z,52.05
2023-02-06T07:10:33.275Z,51.98
2023-02-06T07:13:01.461Z,52.21
2023-02-06T07:15:29.219Z,52.44
2023-02-06T07:17:57.218Z,52.26
2023-02-06T07:20:24.941Z,52.20
2023-02-06T07:22:53.660Z,52.08
2023-02-06T07:25:21.445Z,52.16
2023-02-06T07:27:49.352Z,52.15
2023-02-06T07:30:17.150Z,52.18
2023-02-06T07:32:44.910Z,52.24
2023-02-06T07:35:15.199Z,52.36
2023-02-06T07:37:42.884Z,52.08
2023-02-06T07:40:11.778Z,51.87
2023-02-06T07:42:40.106Z,52.28
2023-02-06T07:45:16.394Z,52.12
2023-02-06T07:47:44.538Z,52.24
2023-02-06T07:50:15.422Z,52.26
2023-02-06T07:52:43.117Z,52.74
2023-02-06T07:55:11.028Z,52.86
2023-02-06T07:57:40.864Z,52.49
2023-02-06T08:00:09.659Z,52.62
2023-02-06T08:02:42.763Z,52.55
2023-02-06T08:05:10.697Z,52.70
2023-02-06T08:07:38.421Z,52.31
2023-02-06T08:10:07.260Z,52.67
2023-02-06T08:12:34.949Z,52.62
2023-02-06T08:15:02.703Z,52.46
2023-02-06T08:17:30.466Z,52.34
2023-02-06T08:19:58.343Z,52.76
2023-02-06T08:22:28.288Z,52.43
2023-02-06T08:24:56.467Z,52.54
2023-02-06T08:27:24.325Z,52.52
2023-02-06T08:29:52.211Z,52.49
2023-02-06T08:32:20.100Z,52.54
2023-02-06T08:34:48.275Z,52.55
2023-02-06T08:37:16.173Z,52.33
2023-02-06T08:39:44.450Z,52.64
2023-02-06T08:42:12.577Z,52.30
2023-02-06T08:44:40.655Z,52.35
2023-02-06T08:47:10.471Z,52.52
2023-02-06T08:49:38.636Z,52.53
2023-02-06T08:52:13.111Z,52.39
2023-02-06T08:54:40.891Z,52.30
2023-02-06T08:57:09.749Z,52.32
2023-02-06T08:59:38.374Z,52.46
2023-02-06T09:02:08.575Z,52.31
2023-02-06T09:04:37.815Z,52.30
2023-02-06T09:07:05.929Z,52.28
2023-02-06T09:09:33.637Z,52.29
2023-02-06T09:12:03.883Z,52.20
2023-02-06T09:14:32.026Z,52.17
2023-02-06T09:16:59.851Z,52.09
2023-02-06T09:19:28.112Z,52.16
2023-02-06T09:21:55.847Z,52.11
2023-02-06T09:24:24.070Z,52.06
2023-02-06T09:26:59.864Z,52.17
2023-02-06T09:29:32.120Z,52.27
2023-02-06T09:31:59.989Z,52.42
2023-02-06T09:34:28.560Z,52.44
2023-02-06T09:36:57.682Z,52.20
2023-02-06T09:39:25.924Z,52.30
2023-02-06T09:42:17.681Z,52.22
2023-02-06T09:44:53.466Z,52.13
2023-02-06T09:47:35.324Z,51.71
2023-02-06T09:50:07.933Z,51.92
2023-02-06T09:53:22.220Z,51.91
2023-02-06T09:56:13.979Z,51.70
2023-02-06T09:59:05.832Z,51.69
2023-02-06T10:02:00.904Z,51.39
2023-02-06T10:05:15.102Z,51.43
2023-02-06T10:08:19.265Z,50.92
2023-02-06T10:10:58.496Z,51.16
2023-02-06T10:13:49.678Z,51.21
2023-02-06T10:16:42.395Z,51.16
2023-02-06T10:19:46.659Z,51.14
2023-02-06T10:22:24.315Z,51.18
2023-02-06T10:25:00.932Z,51.03
2023-02-06T10:27:29.725Z,51.01
2023-02-06T10:29:57.412Z,50.89
2023-02-06T10:32:56.615Z,50.38
2023-02-06T10:36:25.652Z,50.47
2023-02-06T10:39:24.193Z,50.36
2023-02-06T10:42:21.148Z,50.17
2023-02-06T10:45:19.739Z,49.94
2023-02-06T10:48:48.205Z,49.84
2023-02-06T10:51:35.183Z,49.89
2023-02-06T10:54:33.662Z,49.82
2023-02-06T10:57:03.046Z,49.96
2023-02-06T10:59:40.373Z,49.55
2023-02-06T11:02:07.992Z,49.75
2023-02-06T11:04:42.212Z,49.45
2023-02-06T11:07:22.663Z,49.18
2023-02-06T11:09:54.579Z,49.57
2023-02-06T11:12:37.359Z,49.21
2023-02-06T11:15:22.156Z,48.89
2023-02-06T11:17:53.477Z,48.76
2023-02-06T11:20:29.505Z,48.54
2023-02-06T11:23:13.207Z,48.61
2023-02-06T11:25:42.148Z,48.42
2023-02-06T11:28:16.021Z,48.30
2023-02-06T11:30:58.476Z,48.38
2023-02-06T11:33:56.650Z,47.99
2023-02-06T11:36:28.905Z,48.29
2023-02-06T11:39:07.616Z,48.10
2023-02-06T11:41:35.590Z,48.26
2023-02-06T11:44:06.588Z,47.79
2023-02-06T11:46:37.946Z,47.88
2023-02-06T11:49:18.949Z,47.61
2023-02-06T11:52:03.801Z,47.38
2023-02-06T11:54:35.894Z,47.53
2023-02-06T11:57:24.023Z,47.49
2023-02-06T11:59:58.848Z,47.47
2023-02-06T12:02:34.963Z,47.36
2023-02-06T12:05:14.859Z,47.18
2023-02-06T12:08:26.439Z,47.51
2023-02-06T12:11:06.703Z,47.40
2023-02-06T12:13:42.400Z,47.38
2023-02-06T12:16:15.248Z,47.40
2023-02-06T12:18:48.338Z,47.29
2023-02-06T12:21:42.635Z,46.98
2023-02-06T12:24:28.725Z,47.26
2023-02-06T12:27:01.555Z,47.30
2023-02-06T12:29:35.516Z,47.19
2023-02-06T12:32:22.072Z,47.01
2023-02-06T12:35:00.314Z,47.00
2023-02-06T12:37:47.037Z,46.75
2023-02-06T12:41:03.521Z,47.02
2023-02-06T12:43:35.393Z,47.22
2023-02-06T12:46:11.510Z,46.78
2023-02-06T12:48:54.859Z,46.67
2023-02-06T12:51:41.648Z,46.59
2023-02-06T12:54:34.909Z,46.63
2023-02-06T12:57:22.767Z,46.92
2023-02-06T13:00:35.519Z,46.70
2023-02-06T13:03:26.088Z,46.84
2023-02-06T13:06:17.912Z,46.77
2023-02-06T13:08:48.466Z,47.47
2023-02-06T13:11:29.958Z,46.71
2023-02-06T13:14:16.613Z,46.85
2023-02-06T13:16:46.228Z,46.94
2023-02-06T13:19:40.255Z,46.62
2023-02-06T13:22:10.638Z,46.56
2023-02-06T13:24:41.376Z,46.45
2023-02-06T13:27:08.942Z,46.19
2023-02-06T13:29:44.708Z,45.94
2023-02-06T13:32:12.380Z,45.96
2023-02-06T13:34:44.388Z,45.85
2023-02-06T13:37:33.496Z,45.72
2023-02-06T13:40:32.199Z,45.66
2023-02-06T13:43:27.108Z,45.95
2023-02-06T13:46:00.461Z,46.13
2023-02-06T13:48:53.069Z,45.98
2023-02-06T13:51:44.029Z,45.83
2023-02-06T13:54:48.579Z,46.01
2023-02-06T13:57:48.867Z,46.23
2023-02-06T14:00:25.820Z,45.85
2023-02-06T14:03:28.424Z,45.83
2023-02-06T14:06:07.782Z,45.61
2023-02-06T14:09:19.409Z,45.46
2023-02-06T14:12:24.099Z,45.32
2023-02-06T14:15:28.863Z,45.45
2023-02-06T14:18:21.011Z,45.37
2023-02-06T14:21:32.692Z,45.37
2023-02-06T14:24:30.969Z,45.37
2023-02-06T14:27:33.803Z,45.26
2023-02-06T14:30:19.810Z,45.31
2023-02-06T14:33:19.855Z,45.33
2023-02-06T14:36:24.739Z,45.19
2023-02-06T14:39:38.910Z,45.48
2023-02-06T14:42:35.855Z,45.33
2023-02-06T14:45:27.380Z,45.01
2023-02-06T14:47:58.878Z,45.15
2023-02-06T14:50:55.456Z,45.15
2023-02-06T14:53:36.907Z,44.60
2023-02-06T14:56:33.408Z,44.82
2023-02-06T14:59:13.108Z,44.96
2023-02-06T15:01:43.603Z,44.96
2023-02-06T15:04:21.952Z,45.19
2023-02-06T15:07:02.352Z,44.84
2023-02-06T15:09:38.771Z,44.66
2023-02-06T15:12:24.985Z,44.78
2023-02-06T15:15:19.908Z,44.64
2023-02-06T15:18:05.450Z,44.91
2023-02-06T15:20:40.151Z,44.90
2023-02-06T15:23:41.645Z,44.81
2023-02-06T15:26:18.561Z,45.09
2023-02-06T15:28:46.549Z,44.83
2023-02-06T15:31:21.517Z,44.72
2023-02-06T15:33:53.503Z,45.00
2023-02-06T15:36:39.321Z,44.71
2023-02-06T15:39:09.640Z,44.81
2023-02-06T15:41:39.610Z,44.54
2023-02-06T15:44:23.198Z,44.80
2023-02-06T15:46:52.727Z,44.92
2023-02-06T15:49:42.400Z,44.77
2023-02-06T15:52:31.209Z,44.67
2023-02-06T15:55:00.774Z,44.74
2023-02-06T15:57:40.681Z,44.55
2023-02-06T16:00:26.791Z,44.56
2023-02-06T16:03:02.828Z,44.31
2023-02-06T16:05:41.214Z,44.40
2023-02-06T16:08:22.122Z,44.14
2023-02-06T16:10:53.902Z,44.45
2023-02-06T16:13:28.298Z,44.53
2023-02-06T16:16:11.745Z,44.27
2023-02-06T16:18:40.630Z,44.54
2023-02-06T16:21:17.154Z,44.19
2023-02-06T16:23:53.364Z,44.27
2023-02-06T16:26:44.190Z,44.15
2023-02-06T16:29:31.453Z,44.39
2023-02-06T16:32:11.918Z,44.41
2023-02-06T16:34:44.107Z,44.53
2023-02-06T16:37:25.682Z,44.19
2023-02-06T16:39:54.334Z,44.25
2023-02-06T16:42:32.291Z,44.20
2023-02-06T16:45:07.308Z,44.33
2023-02-06T16:47:35.174Z,44.48
2023-02-06T16:50:03.696Z,44.37
2023-02-06T16:52:33.975Z,44.60
2023-02-06T16:55:02.417Z,44.61
2023-02-06T16:57:41.324Z,44.34
2023-02-06T17:00:22.396Z,44.48
2023-02-06T17:02:54.624Z,44.38
2023-02-06T17:05:25.408Z,44.38
2023-02-06T17:07:54.154Z,44.84
2023-02-06T17:10:26.194Z,44.63
2023-02-06T17:12:54.720Z,44.30
2023-02-06T17:15:22.707Z,44.37
2023-02-06T17:17:51.370Z,44.90
2023-02-06T17:20:39.288Z,44.89
2023-02-06T17:23:07.670Z,45.08
2023-02-06T17:25:35.608Z,44.94
2023-02-06T17:28:06.998Z,44.99
2023-02-06T17:30:37.874Z,44.88
2023-02-06T17:33:06.515Z,45.11
2023-02-06T17:35:39.079Z,44.85
2023-02-06T17:38:08.957Z,44.90
2023-02-06T17:40:40.038Z,44.94
2023-02-06T17:43:08.610Z,44.78
2023-02-06T17:45:39.666Z,45.14
2023-02-06T17:48:08.430Z,45.06
2023-02-06T17:50:38.024Z,45.06
2023-02-06T17:53:07.112Z,45.31
2023-02-06T17:55:35.939Z,45.45
2023-02-06T17:58:04.248Z,45.40
2023-02-06T18:00:32.241Z,45.51
2023-02-06T18:03:00.654Z,45.55
2023-02-06T18:05:28.646Z,45.58
2023-02-06T18:07:56.577Z,45.70
2023-02-06T18:10:26.425Z,45.80
2023-02-06T18:12:54.185Z,45.74
2023-02-06T18:15:21.983Z,45.95
2023-02-06T18:17:49.866Z,45.93
2023-02-06T18:20:17.734Z,45.99
2023-02-06T18:22:46.552Z,46.13
2023-02-06T18:25:15.563Z,46.20
2023-02-06T18:27:45.823Z,46.08
2023-02-06T18:30:15.187Z,46.00
2023-02-06T18:32:44.722Z,45.88
2023-02-06T18:35:14.725Z,45.94
2023-02-06T18:37:43.667Z,45.66
2023-02-06T18:40:12.047Z,45.55
2023-02-06T18:42:53.777Z,45.54
2023-02-06T18:45:22.876Z,45.83
2023-02-06T18:47:53.656Z,45.92
2023-02-06T18:50:22.277Z,45.32
2023-02-06T18:52:50.947Z,45.20
2023-02-06T18:55:19.511Z,45.17
2023-02-06T18:57:47.547Z,45.03
2023-02-06T19:00:17.959Z,45.23
2023-02-06T19:02:46.399Z,45.08
2023-02-06T19:05:14.691Z,45.51
2023-02-06T19:07:42.697Z,45.34
2023-02-06T19:10:12.888Z,45.47
2023-02-06T19:12:40.734Z,45.18
2023-02-06T19:15:10.275Z,45.34
2023-02-06T19:17:38.481Z,45.31
2023-02-06T19:20:07.219Z,45.15
2023-02-06T19:22:36.423Z,45.20
2023-02-06T19:25:10.217Z,44.91
2023-02-06T19:27:39.011Z,45.08
2023-02-06T19:30:08.054Z,44.86
2023-02-06T19:32:36.545Z,45.11
2023-02-06T19:35:05.655Z,44.98
2023-02-06T19:37:33.649Z,44.85
2023-02-06T19:40:01.367Z,44.80
2023-02-06T19:42:29.299Z,44.90
2023-02-06T19:44:57.069Z,44.97
2023-02-06T19:47:24.972Z,44.81
2023-02-06T19:49:52.910Z,44.72
2023-02-06T19:52:20.829Z,44.86
2023-02-06T19:54:48.823Z,44.93
2023-02-06T19:57:19.312Z,45.00
2023-02-06T19:59:47.132Z,45.07
2023-02-06T20:02:16.154Z,44.90
2023-02-06T20:04:46.048Z,45.16
2023-02-06T20:07:14.336Z,44.42
2023-02-06T20:09:42.637Z,44.53
2023-02-06T20:12:12.493Z,44.64
2023-02-06T20:14:40.361Z,44.19
2023-02-06T20:17:08.349Z,44.26
2023-02-06T20:19:36.356Z,44.54
2023-02-06T20:22:05.018Z,44.52
2023-02-06T20:24:33.069Z,44.04
2023-02-06T20:27:07.214Z,44.07
2023-02-06T20:29:42.951Z,44.06
2023-02-06T20:32:11.674Z,44.12
2023-02-06T20:34:39.400Z,44.19
2023-02-06T20:37:07.246Z,44.04
2023-02-06T20:39:35.486Z,44.17
2023-02-06T20:42:06.492Z,44.56
2023-02-06T20:44:34.204Z,44.45
2023-02-06T20:47:02.110Z,44.54
2023-02-06T20:49:31.114Z,43.93
2023-02-06T20:51:59.173Z,44.01
2023-02-06T20:54:27.213Z,44.12
2023-02-06T20:56:55.582Z,44.37
2023-02-06T20:59:23.546Z,44.12
2023-02-06T21:01:51.602Z,43.98
2023-02-06T21:04:19.953Z,44.27
2023-02-06T21:06:49.836Z,43.99
2023-02-06T21:09:18.713Z,44.11
2023-02-06T21:11:50.012Z,44.63
2023-02-06T21:14:18.810Z,44.74
2023-02-06T21:16:47.362Z,44.44
2023-02-06T21:19:19.094Z,44.44
2023-02-06T21:21:47.108Z,44.68
2023-02-06T21:24:17.095Z,44.18
2023-02-06T21:26:45.114Z,44.18
2023-02-06T21:29:15.038Z,44.66
2023-02-06T21:31:43.136Z,44.74
2023-02-06T21:34:21.545Z,44.51
2023-02-06T21:36:49.948Z,44.53
2023-02-06T21:39:22.825Z,44.73
2023-02-06T21:41:56.571Z,44.12
2023-02-06T21:44:26.390Z,44.66
2023-02-06T21:46:55.916Z,44.81
2023-02-06T21:49:23.937Z,44.25
2023-02-06T21:51:53.172Z,44.27
2023-02-06T21:54:21.786Z,44.10
2023-02-06T21:56:49.552Z,44.60
2023-02-06T21:59:18.615Z,44.72
2023-02-06T22:01:46.537Z,44.69
2023-02-06T22:04:14.379Z,44.63
2023-02-06T22:06:42.314Z,44.53
2023-02-06T22:09:16.316Z,44.51
2023-02-06T22:11:44.714Z,44.33
2023-02-06T22:14:16.149Z,44.87
2023-02-06T22:16:46.755Z,44.89
2023-02-06T22:19:16.328Z,44.81
2023-02-06T22:21:45.068Z,44.65
2023-02-06T22:24:13.468Z,44.71
2023-02-06T22:26:41.551Z,45.04
2023-02-06T22:29:15.008Z,44.82
2023-02-06T22:31:44.361Z,44.80
2023-02-06T22:34:20.808Z,44.85
2023-02-06T22:36:50.981Z,45.24
2023-02-06T22:39:19.315Z,45.15
2023-02-06T22:41:47.429Z,45.17
2023-02-06T22:44:17.202Z,44.78
2023-02-06T22:46:52.668Z,44.79
2023-02-06T22:49:21.621Z,45.09
2023-02-06T22:51:49.809Z,45.01
2023-02-06T22:54:18.078Z,45.17
2023-02-06T22:56:46.018Z,45.13
2023-02-06T22:59:19.415Z,44.77
2023-02-06T23:01:57.779Z,45.08
2023-02-06T23:04:35.029Z,44.81
2023-02-06T23:07:03.287Z,44.87
2023-02-06T23:09:35.228Z,45.10
2023-02-06T23:12:04.214Z,45.11
2023-02-06T23:14:33.343Z,45.49
2023-02-06T23:17:02.244Z,45.26
2023-02-06T23:19:30.579Z,45.53
2023-02-06T23:21:58.665Z,45.18
2023-02-06T23:24:26.587Z,45.89
2023-02-06T23:26:54.833Z,45.62
2023-02-06T23:29:24.208Z,45.89
2023-02-06T23:31:52.727Z,46.15
2023-02-06T23:34:24.117Z,45.83
2023-02-06T23:36:53.418Z,46.05
2023-02-06T23:39:21.453Z,46.01
2023-02-06T23:41:49.546Z,46.33
2023-02-06T23:44:17.748Z,46.47
2023-02-06T23:46:45.925Z,46.75
2023-02-06T23:49:13.787Z,46.33
2023-02-06T23:51:42.242Z,46.45
2023-02-06T23:54:10.459Z,46.23
2023-02-06T23:56:38.386Z,46.38
2023-02-06T23:59:06.692Z,46.28
